sensor_id;sensor_type;location;lat;lon;timestamp;pressure;altitude;pressure_sealevel;temperature;humidity
10946;BME280;5525;42.648;23.368;2023-04-28T00:00:49;94888.78;;;6.56;79.49
10946;BME280;5525;42.648;23.368;2023-04-28T00:03:16;94891.31;;;6.47;79.46
10946;BME280;5525;42.648;23.368;2023-04-28T00:05:43;94895.97;;;6.42;80.89
10946;BME280;5525;42.648;23.368;2023-04-28T00:08:09;94900.13;;;6.34;81.83
10946;BME280;5525;42.648;23.368;2023-04-28T00:10:36;94906.66;;;6.28;81.94
10946;BME280;5525;42.648;23.368;2023-04-28T00:13:04;94892.09;;;6.16;82.80
10946;BME280;5525;42.648;23.368;2023-04-28T00:15:31;94900.69;;;6.13;83.79
10946;BME280;5525;42.648;23.368;2023-04-28T00:17:57;94900.47;;;6.09;83.94
10946;BME280;5525;42.648;23.368;2023-04-28T00:20:24;94904.59;;;6.02;84.92
10946;BME280;5525;42.648;23.368;2023-04-28T00:22:51;94892.66;;;5.94;85.16
10946;BME280;5525;42.648;23.368;2023-04-28T00:25:17;94893.28;;;5.86;85.52
10946;BME280;5525;42.648;23.368;2023-04-28T00:27:44;94903.72;;;5.88;86.20
10946;BME280;5525;42.648;23.368;2023-04-28T00:30:12;94900.34;;;5.77;87.60
10946;BME280;5525;42.648;23.368;2023-04-28T00:32:39;94897.16;;;5.75;88.06
10946;BME280;5525;42.648;23.368;2023-04-28T00:35:06;94907.09;;;5.75;88.65
10946;BME280;5525;42.648;23.368;2023-04-28T00:37:35;94907.16;;;5.70;87.57
10946;BME280;5525;42.648;23.368;2023-04-28T00:40:02;94910.84;;;5.74;87.42
10946;BME280;5525;42.648;23.368;2023-04-28T00:42:29;94907.22;;;5.65;89.11
10946;BME280;5525;42.648;23.368;2023-04-28T00:44:56;94912.13;;;5.58;89.17
10946;BME280;5525;42.648;23.368;2023-04-28T00:47:24;94904.88;;;5.58;90.53
10946;BME280;5525;42.648;23.368;2023-04-28T00:49:51;94902.75;;;5.55;90.64
10946;BME280;5525;42.648;23.368;2023-04-28T00:52:18;94905.00;;;5.48;91.97
10946;BME280;5525;42.648;23.368;2023-04-28T00:54:45;94917.97;;;5.41;92.53
10946;BME280;5525;42.648;23.368;2023-04-28T00:57:13;94908.88;;;5.37;93.11
10946;BME280;5525;42.648;23.368;2023-04-28T00:59:39;94900.03;;;5.37;94.09
10946;BME280;5525;42.648;23.368;2023-04-28T01:02:06;94915.09;;;5.33;93.76
10946;BME280;5525;42.648;23.368;2023-04-28T01:04:34;94914.56;;;5.31;93.76
10946;BME280;5525;42.648;23.368;2023-04-28T01:07:01;94912.97;;;5.30;94.62
10946;BME280;5525;42.648;23.368;2023-04-28T01:09:28;94918.66;;;5.23;95.69
10946;BME280;5525;42.648;23.368;2023-04-28T01:11:55;94914.66;;;5.26;94.59
10946;BME280;5525;42.648;23.368;2023-04-28T01:14:22;94921.63;;;5.21;95.59
10946;BME280;5525;42.648;23.368;2023-04-28T01:16:49;94916.00;;;5.23;94.86
10946;BME280;5525;42.648;23.368;2023-04-28T01:19:19;94925.16;;;5.17;95.06
10946;BME280;5525;42.648;23.368;2023-04-28T01:21:48;94918.84;;;5.08;95.90
10946;BME280;5525;42.648;23.368;2023-04-28T01:24:16;94920.22;;;5.05;96.42
10946;BME280;5525;42.648;23.368;2023-04-28T01:26:44;94926.97;;;5.21;94.33
10946;BME280;5525;42.648;23.368;2023-04-28T01:29:11;94927.88;;;5.12;94.70
10946;BME280;5525;42.648;23.368;2023-04-28T01:31:38;94931.38;;;5.12;94.88
10946;BME280;5525;42.648;23.368;2023-04-28T01:34:05;94929.09;;;5.01;96.06
10946;BME280;5525;42.648;23.368;2023-04-28T01:36:32;94928.00;;;5.02;96.26
10946;BME280;5525;42.648;23.368;2023-04-28T01:38:58;94929.09;;;5.01;95.13
10946;BME280;5525;42.648;23.368;2023-04-28T01:41:27;94927.31;;;4.91;95.84
10946;BME280;5525;42.648;23.368;2023-04-28T01:43:53;94925.88;;;4.99;94.63
10946;BME280;5525;42.648;23.368;2023-04-28T01:46:20;94921.66;;;4.93;95.02
10946;BME280;5525;42.648;23.368;2023-04-28T01:48:47;94922.75;;;4.92;94.37
10946;BME280;5525;42.648;23.368;2023-04-28T01:51:13;94920.84;;;4.92;93.92
10946;BME280;5525;42.648;23.368;2023-04-28T01:53:40;94927.53;;;4.95;93.76
10946;BME280;5525;42.648;23.368;2023-04-28T01:56:06;94918.47;;;4.91;94.09
10946;BME280;5525;42.648;23.368;2023-04-28T01:58:34;94919.50;;;4.95;93.87
10946;BME280;5525;42.648;23.368;2023-04-28T02:01:01;94922.00;;;4.86;94.41
10946;BME280;5525;42.648;23.368;2023-04-28T02:03:28;94915.63;;;4.82;95.02
10946;BME280;5525;42.648;23.368;2023-04-28T02:05:54;94929.03;;;4.77;95.98
10946;BME280;5525;42.648;23.368;2023-04-28T02:08:21;94918.56;;;4.81;95.77
10946;BME280;5525;42.648;23.368;2023-04-28T02:10:48;94924.94;;;4.85;95.98
10946;BME280;5525;42.648;23.368;2023-04-28T02:13:15;94924.50;;;4.78;95.66
10946;BME280;5525;42.648;23.368;2023-04-28T02:15:43;94931.44;;;4.79;96.83
10946;BME280;5525;42.648;23.368;2023-04-28T02:18:10;94937.34;;;4.76;96.88
10946;BME280;5525;42.648;23.368;2023-04-28T02:20:36;94936.03;;;4.73;97.29
10946;BME280;5525;42.648;23.368;2023-04-28T02:23:03;94931.75;;;4.72;97.89
10946;BME280;5525;42.648;23.368;2023-04-28T02:25:30;94936.63;;;4.65;98.21
10946;BME280;5525;42.648;23.368;2023-04-28T02:27:56;94942.44;;;4.72;98.24
10946;BME280;5525;42.648;23.368;2023-04-28T02:30:23;94941.41;;;4.68;98.48
10946;BME280;5525;42.648;23.368;2023-04-28T02:32:51;94942.72;;;4.71;99.26
10946;BME280;5525;42.648;23.368;2023-04-28T02:35:18;94941.66;;;4.72;98.67
10946;BME280;5525;42.648;23.368;2023-04-28T02:37:45;94943.22;;;4.78;97.58
10946;BME280;5525;42.648;23.368;2023-04-28T02:40:12;94945.91;;;4.73;98.85
10946;BME280;5525;42.648;23.368;2023-04-28T02:42:39;94952.63;;;4.70;99.06
10946;BME280;5525;42.648;23.368;2023-04-28T02:45:06;94958.75;;;4.71;99.78
10946;BME280;5525;42.648;23.368;2023-04-28T02:47:33;94954.50;;;4.70;98.54
10946;BME280;5525;42.648;23.368;2023-04-28T02:50:01;94935.63;;;4.56;99.16
10946;BME280;5525;42.648;23.368;2023-04-28T02:52:28;94948.66;;;4.63;99.56
10946;BME280;5525;42.648;23.368;2023-04-28T02:54:54;94958.59;;;4.62;100.00
10946;BME280;5525;42.648;23.368;2023-04-28T02:57:22;94957.22;;;4.65;100.00
10946;BME280;5525;42.648;23.368;2023-04-28T02:59:49;94945.06;;;4.49;99.61
10946;BME280;5525;42.648;23.368;2023-04-28T03:02:15;94965.00;;;4.61;100.00
10946;BME280;5525;42.648;23.368;2023-04-28T03:04:42;94971.66;;;4.64;100.00
10946;BME280;5525;42.648;23.368;2023-04-28T03:07:10;94968.50;;;4.57;100.00
10946;BME280;5525;42.648;23.368;2023-04-28T03:09:37;94963.41;;;4.60;100.00
10946;BME280;5525;42.648;23.368;2023-04-28T03:12:04;94956.41;;;4.64;100.00
10946;BME280;5525;42.648;23.368;2023-04-28T03:14:30;94959.63;;;4.61;100.00
10946;BME280;5525;42.648;23.368;2023-04-28T03:16:57;94965.03;;;4.56;100.00
10946;BME280;5525;42.648;23.368;2023-04-28T03:19:24;94969.06;;;4.54;100.00
10946;BME280;5525;42.648;23.368;2023-04-28T03:21:50;94969.06;;;4.54;100.00
10946;BME280;5525;42.648;23.368;2023-04-28T03:24:18;94976.81;;;4.55;100.00
10946;BME280;5525;42.648;23.368;2023-04-28T03:26:45;94978.16;;;4.53;99.37
10946;BME280;5525;42.648;23.368;2023-04-28T03:29:12;94983.50;;;4.58;98.96
10946;BME280;5525;42.648;23.368;2023-04-28T03:31:38;94987.19;;;4.62;97.99
10946;BME280;5525;42.648;23.368;2023-04-28T03:34:05;94993.81;;;4.69;97.78
10946;BME280;5525;42.648;23.368;2023-04-28T03:36:32;94998.38;;;4.69;96.97
10946;BME280;5525;42.648;23.368;2023-04-28T03:38:58;95003.69;;;4.74;96.16
10946;BME280;5525;42.648;23.368;2023-04-28T03:41:26;94997.31;;;4.70;96.95
10946;BME280;5525;42.648;23.368;2023-04-28T03:43:53;95002.91;;;4.73;96.16
10946;BME280;5525;42.648;23.368;2023-04-28T03:46:21;95005.78;;;4.77;94.68
10946;BME280;5525;42.648;23.368;2023-04-28T03:48:48;95005.28;;;4.75;95.14
10946;BME280;5525;42.648;23.368;2023-04-28T03:51:14;95011.13;;;4.77;94.99
10946;BME280;5525;42.648;23.368;2023-04-28T03:53:41;95007.88;;;4.85;94.40
10946;BME280;5525;42.648;23.368;2023-04-28T03:56:08;95015.09;;;4.84;94.34
10946;BME280;5525;42.648;23.368;2023-04-28T03:58:36;95023.91;;;4.90;93.60
10946;BME280;5525;42.648;23.368;2023-04-28T04:01:03;95023.59;;;4.96;92.94
10946;BME280;5525;42.648;23.368;2023-04-28T04:03:29;95021.41;;;4.98;91.33
10946;BME280;5525;42.648;23.368;2023-04-28T04:05:57;95029.16;;;5.00;91.53
10946;BME280;5525;42.648;23.368;2023-04-28T04:08:24;95033.63;;;5.09;89.84
10946;BME280;5525;42.648;23.368;2023-04-28T04:10:51;95021.94;;;5.00;90.24
10946;BME280;5525;42.648;23.368;2023-04-28T04:13:19;95039.97;;;5.18;88.74
10946;BME280;5525;42.648;23.368;2023-04-28T04:15:47;95036.16;;;5.24;87.67
10946;BME280;5525;42.648;23.368;2023-04-28T04:18:14;95039.69;;;5.20;88.09
10946;BME280;5525;42.648;23.368;2023-04-28T04:20:41;95038.81;;;5.30;88.44
10946;BME280;5525;42.648;23.368;2023-04-28T04:23:07;95044.88;;;5.40;86.26
10946;BME280;5525;42.648;23.368;2023-04-28T04:25:34;95046.31;;;5.85;83.91
10946;BME280;5525;42.648;23.368;2023-04-28T04:28:01;95045.97;;;7.26;74.36
10946;BME280;5525;42.648;23.368;2023-04-28T04:30:28;95056.50;;;7.87;67.63
10946;BME280;5525;42.648;23.368;2023-04-28T04:32:56;95047.59;;;8.68;63.23
10946;BME280;5525;42.648;23.368;2023-04-28T04:35:23;95048.00;;;9.54;59.72
10946;BME280;5525;42.648;23.368;2023-04-28T04:37:49;95045.94;;;9.82;58.01
10946;BME280;5525;42.648;23.368;2023-04-28T04:40:16;95051.72;;;10.84;54.48
10946;BME280;5525;42.648;23.368;2023-04-28T04:42:43;95058.91;;;11.40;51.06
10946;BME280;5525;42.648;23.368;2023-04-28T04:45:09;95048.19;;;10.75;51.61
10946;BME280;5525;42.648;23.368;2023-04-28T04:47:36;95055.88;;;11.41;49.90
10946;BME280;5525;42.648;23.368;2023-04-28T04:50:06;95053.22;;;12.13;48.67
10946;BME280;5525;42.648;23.368;2023-04-28T04:52:33;95060.19;;;11.08;48.48
10946;BME280;5525;42.648;23.368;2023-04-28T04:54:59;95061.59;;;11.74;47.58
10946;BME280;5525;42.648;23.368;2023-04-28T04:57:26;95062.00;;;12.77;45.76
10946;BME280;5525;42.648;23.368;2023-04-28T04:59:52;95072.00;;;13.76;43.97
10946;BME280;5525;42.648;23.368;2023-04-28T05:02:19;95055.50;;;13.48;42.74
10946;BME280;5525;42.648;23.368;2023-04-28T05:04:46;95068.47;;;13.96;42.42
10946;BME280;5525;42.648;23.368;2023-04-28T05:07:14;95067.16;;;13.81;42.16
10946;BME280;5525;42.648;23.368;2023-04-28T05:09:41;95064.97;;;13.75;42.89
10946;BME280;5525;42.648;23.368;2023-04-28T05:12:07;95073.81;;;14.16;41.32
10946;BME280;5525;42.648;23.368;2023-04-28T05:14:34;95075.47;;;15.50;38.80
10946;BME280;5525;42.648;23.368;2023-04-28T05:17:01;95071.06;;;15.21;38.67
10946;BME280;5525;42.648;23.368;2023-04-28T05:19:27;95080.16;;;15.01;38.09
10946;BME280;5525;42.648;23.368;2023-04-28T05:21:54;95077.41;;;15.25;37.97
10946;BME280;5525;42.648;23.368;2023-04-28T05:24:22;95077.16;;;15.54;37.98
10946;BME280;5525;42.648;23.368;2023-04-28T05:26:49;95078.25;;;15.53;37.34
10946;BME280;5525;42.648;23.368;2023-04-28T05:29:16;95072.25;;;15.60;36.46
10946;BME280;5525;42.648;23.368;2023-04-28T05:31:43;95078.03;;;15.58;37.00
10946;BME280;5525;42.648;23.368;2023-04-28T05:34:09;95071.84;;;17.56;35.01
10946;BME280;5525;42.648;23.368;2023-04-28T05:36:36;95074.78;;;17.48;33.77
10946;BME280;5525;42.648;23.368;2023-04-28T05:39:03;95071.78;;;17.03;34.92
10946;BME280;5525;42.648;23.368;2023-04-28T05:41:31;95076.31;;;16.36;34.97
10946;BME280;5525;42.648;23.368;2023-04-28T05:43:58;95076.75;;;14.56;38.00
10946;BME280;5525;42.648;23.368;2023-04-28T05:46:25;95081.53;;;14.71;38.15
10946;BME280;5525;42.648;23.368;2023-04-28T05:48:51;95076.78;;;14.23;38.84
10946;BME280;5525;42.648;23.368;2023-04-28T05:51:18;95076.84;;;15.07;38.29
10946;BME280;5525;42.648;23.368;2023-04-28T05:53:47;95078.53;;;15.48;37.37
10946;BME280;5525;42.648;23.368;2023-04-28T05:56:14;95081.22;;;16.15;36.97
10946;BME280;5525;42.648;23.368;2023-04-28T05:58:43;95082.13;;;16.35;35.75
10946;BME280;5525;42.648;23.368;2023-04-28T06:01:10;95081.28;;;17.59;34.97
10946;BME280;5525;42.648;23.368;2023-04-28T06:03:37;95068.75;;;17.96;33.79
10946;BME280;5525;42.648;23.368;2023-04-28T06:06:05;95079.09;;;16.52;34.41
10946;BME280;5525;42.648;23.368;2023-04-28T06:08:32;95076.31;;;17.30;33.43
10946;BME280;5525;42.648;23.368;2023-04-28T06:10:59;95077.75;;;17.43;33.44
10946;BME280;5525;42.648;23.368;2023-04-28T06:13:26;95087.00;;;15.86;34.58
10946;BME280;5525;42.648;23.368;2023-04-28T06:15:54;95074.00;;;18.42;31.37
10946;BME280;5525;42.648;23.368;2023-04-28T06:18:20;95076.09;;;17.92;31.36
10946;BME280;5525;42.648;23.368;2023-04-28T06:20:48;95078.19;;;16.95;32.75
10946;BME280;5525;42.648;23.368;2023-04-28T06:23:15;95079.00;;;17.45;32.47
10946;BME280;5525;42.648;23.368;2023-04-28T06:25:41;95075.16;;;18.22;31.66
10946;BME280;5525;42.648;23.368;2023-04-28T06:28:08;95068.84;;;19.87;29.55
10946;BME280;5525;42.648;23.368;2023-04-28T06:30:36;95077.28;;;20.74;28.44
10946;BME280;5525;42.648;23.368;2023-04-28T06:33:04;95080.81;;;19.46;29.14
10946;BME280;5525;42.648;23.368;2023-04-28T06:35:31;95065.03;;;18.65;29.57
10946;BME280;5525;42.648;23.368;2023-04-28T06:38:00;95077.84;;;22.02;27.03
10946;BME280;5525;42.648;23.368;2023-04-28T06:40:28;95078.56;;;21.89;26.64
10946;BME280;5525;42.648;23.368;2023-04-28T06:42:54;95083.84;;;22.22;26.01
10946;BME280;5525;42.648;23.368;2023-04-28T06:45:21;95072.19;;;21.74;26.67
10946;BME280;5525;42.648;23.368;2023-04-28T06:47:48;95075.94;;;22.13;25.58
10946;BME280;5525;42.648;23.368;2023-04-28T06:50:16;95079.41;;;20.51;26.99
10946;BME280;5525;42.648;23.368;2023-04-28T06:52:43;95087.38;;;20.63;26.32
10946;BME280;5525;42.648;23.368;2023-04-28T06:55:14;95073.81;;;21.79;25.45
10946;BME280;5525;42.648;23.368;2023-04-28T06:57:43;95070.66;;;23.68;23.96
10946;BME280;5525;42.648;23.368;2023-04-28T07:00:11;95060.47;;;23.33;23.85
10946;BME280;5525;42.648;23.368;2023-04-28T07:02:38;95087.47;;;24.29;23.26
10946;BME280;5525;42.648;23.368;2023-04-28T07:05:05;95074.00;;;25.07;22.95
10946;BME280;5525;42.648;23.368;2023-04-28T07:07:35;95081.16;;;26.30;21.02
10946;BME280;5525;42.648;23.368;2023-04-28T07:10:03;95089.59;;;25.38;21.66
10946;BME280;5525;42.648;23.368;2023-04-28T07:12:30;95078.81;;;25.88;20.87
10946;BME280;5525;42.648;23.368;2023-04-28T07:14:57;95075.63;;;26.64;20.44
10946;BME280;5525;42.648;23.368;2023-04-28T07:17:23;95076.84;;;27.65;19.39
10946;BME280;5525;42.648;23.368;2023-04-28T07:19:50;95078.50;;;25.82;20.83
10946;BME280;5525;42.648;23.368;2023-04-28T07:22:17;95074.72;;;24.49;22.00
10946;BME280;5525;42.648;23.368;2023-04-28T07:24:45;95083.59;;;25.43;21.86
10946;BME280;5525;42.648;23.368;2023-04-28T07:27:11;95083.81;;;26.37;20.70
10946;BME280;5525;42.648;23.368;2023-04-28T07:29:38;95079.97;;;25.94;20.87
10946;BME280;5525;42.648;23.368;2023-04-28T07:32:05;95074.31;;;26.72;19.93
10946;BME280;5525;42.648;23.368;2023-04-28T07:34:33;95075.22;;;24.27;22.00
10946;BME280;5525;42.648;23.368;2023-04-28T07:37:00;95080.19;;;24.70;21.42
10946;BME280;5525;42.648;23.368;2023-04-28T07:39:27;95068.72;;;24.72;21.57
10946;BME280;5525;42.648;23.368;2023-04-28T07:41:55;95078.03;;;24.13;21.81
10946;BME280;5525;42.648;23.368;2023-04-28T07:44:23;95082.81;;;25.87;20.74
10946;BME280;5525;42.648;23.368;2023-04-28T07:46:50;95075.69;;;28.48;18.64
10946;BME280;5525;42.648;23.368;2023-04-28T07:49:17;95081.28;;;27.10;19.22
10946;BME280;5525;42.648;23.368;2023-04-28T07:51:43;95080.06;;;28.49;18.49
10946;BME280;5525;42.648;23.368;2023-04-28T07:54:10;95087.84;;;29.77;17.78
10946;BME280;5525;42.648;23.368;2023-04-28T07:56:37;95079.56;;;30.34;16.84
10946;BME280;5525;42.648;23.368;2023-04-28T07:59:05;95078.78;;;27.91;18.72
10946;BME280;5525;42.648;23.368;2023-04-28T08:01:32;95083.22;;;29.38;18.07
10946;BME280;5525;42.648;23.368;2023-04-28T08:03:59;95091.44;;;30.38;16.92
10946;BME280;5525;42.648;23.368;2023-04-28T08:06:26;95077.78;;;30.69;16.20
10946;BME280;5525;42.648;23.368;2023-04-28T08:08:53;95075.59;;;31.89;15.64
10946;BME280;5525;42.648;23.368;2023-04-28T08:11:20;95071.06;;;27.56;17.84
10946;BME280;5525;42.648;23.368;2023-04-28T08:13:47;95085.06;;;29.93;16.55
10946;BME280;5525;42.648;23.368;2023-04-28T08:16:16;95075.25;;;28.69;17.32
10946;BME280;5525;42.648;23.368;2023-04-28T08:18:42;95080.69;;;27.94;17.56
10946;BME280;5525;42.648;23.368;2023-04-28T08:21:10;95082.91;;;30.29;16.29
10946;BME280;5525;42.648;23.368;2023-04-28T08:23:37;95068.41;;;31.17;16.24
10946;BME280;5525;42.648;23.368;2023-04-28T08:26:03;95078.94;;;28.24;17.78
10946;BME280;5525;42.648;23.368;2023-04-28T08:28:30;95078.88;;;29.86;16.71
10946;BME280;5525;42.648;23.368;2023-04-28T08:30:58;95056.94;;;29.88;16.61
10946;BME280;5525;42.648;23.368;2023-04-28T08:33:26;95067.34;;;28.29;17.44
10946;BME280;5525;42.648;23.368;2023-04-28T08:35:54;95067.63;;;27.22;18.12
10946;BME280;5525;42.648;23.368;2023-04-28T08:38:21;95064.69;;;29.96;16.53
10946;BME280;5525;42.648;23.368;2023-04-28T08:40:49;95063.31;;;29.24;16.57
10946;BME280;5525;42.648;23.368;2023-04-28T08:43:16;95071.16;;;29.61;16.67
10946;BME280;5525;42.648;23.368;2023-04-28T08:45:45;95062.03;;;29.77;16.43
10946;BME280;5525;42.648;23.368;2023-04-28T08:48:17;95061.25;;;31.41;15.28
10946;BME280;5525;42.648;23.368;2023-04-28T08:50:48;95061.34;;;30.46;16.06
10946;BME280;5525;42.648;23.368;2023-04-28T08:53:21;95057.22;;;32.13;14.87
10946;BME280;5525;42.648;23.368;2023-04-28T08:55:51;95058.91;;;30.03;15.91
10946;BME280;5525;42.648;23.368;2023-04-28T08:58:21;95044.66;;;28.89;16.97
10946;BME280;5525;42.648;23.368;2023-04-28T09:00:48;95048.28;;;27.65;17.98
10946;BME280;5525;42.648;23.368;2023-04-28T09:03:14;95049.34;;;27.51;17.77
10946;BME280;5525;42.648;23.368;2023-04-28T09:05:41;95040.44;;;28.26;17.18
10946;BME280;5525;42.648;23.368;2023-04-28T09:08:10;95038.56;;;27.34;18.06
10946;BME280;5525;42.648;23.368;2023-04-28T09:10:37;95042.38;;;27.17;18.12
10946;BME280;5525;42.648;23.368;2023-04-28T09:13:04;95038.22;;;27.28;17.93
10946;BME280;5525;42.648;23.368;2023-04-28T09:15:32;95029.75;;;29.31;16.87
10946;BME280;5525;42.648;23.368;2023-04-28T09:18:00;95023.22;;;29.53;16.43
10946;BME280;5525;42.648;23.368;2023-04-28T09:20:29;95026.03;;;32.80;14.75
10946;BME280;5525;42.648;23.368;2023-04-28T09:23:14;95029.44;;;34.02;13.91
10946;BME280;5525;42.648;23.368;2023-04-28T09:25:55;95025.22;;;34.34;13.40
10946;BME280;5525;42.648;23.368;2023-04-28T09:28:22;95025.94;;;28.73;15.66
10946;BME280;5525;42.648;23.368;2023-04-28T09:30:49;95024.94;;;30.08;15.53
10946;BME280;5525;42.648;23.368;2023-04-28T09:33:16;95011.56;;;32.50;14.88
10946;BME280;5525;42.648;23.368;2023-04-28T09:35:43;95015.16;;;32.60;14.64
10946;BME280;5525;42.648;23.368;2023-04-28T09:38:14;95010.34;;;30.86;15.36
10946;BME280;5525;42.648;23.368;2023-04-28T09:40:52;95013.94;;;33.80;13.86
10946;BME280;5525;42.648;23.368;2023-04-28T09:43:23;94994.38;;;31.37;15.19
10946;BME280;5525;42.648;23.368;2023-04-28T09:45:50;94999.13;;;30.49;16.28
10946;BME280;5525;42.648;23.368;2023-04-28T09:48:26;94993.25;;;30.72;15.00
10946;BME280;5525;42.648;23.368;2023-04-28T09:50:52;94985.56;;;31.39;14.71
10946;BME280;5525;42.648;23.368;2023-04-28T09:53:22;94989.41;;;30.41;15.52
10946;BME280;5525;42.648;23.368;2023-04-28T09:55:52;94991.66;;;32.79;14.38
10946;BME280;5525;42.648;23.368;2023-04-28T09:58:20;94978.31;;;32.52;13.88
10946;BME280;5525;42.648;23.368;2023-04-28T10:00:51;94976.47;;;31.94;14.51
10946;BME280;5525;42.648;23.368;2023-04-28T10:03:20;94979.75;;;31.21;14.89
10946;BME280;5525;42.648;23.368;2023-04-28T10:05:47;94983.81;;;28.20;16.73
10946;BME280;5525;42.648;23.368;2023-04-28T10:08:15;94976.16;;;28.43;16.37
10946;BME280;5525;42.648;23.368;2023-04-28T10:10:45;94964.63;;;27.66;16.50
10946;BME280;5525;42.648;23.368;2023-04-28T10:13:14;94962.34;;;28.91;16.07
10946;BME280;5525;42.648;23.368;2023-04-28T10:15:41;94958.44;;;27.59;16.33
10946;BME280;5525;42.648;23.368;2023-04-28T10:18:08;94962.53;;;29.32;15.38
10946;BME280;5525;42.648;23.368;2023-04-28T10:20:35;94964.28;;;28.94;15.93
10946;BME280;5525;42.648;23.368;2023-04-28T10:23:16;94949.41;;;29.01;16.41
10946;BME280;5525;42.648;23.368;2023-04-28T10:25:55;94952.66;;;31.08;15.53
10946;BME280;5525;42.648;23.368;2023-04-28T10:28:24;94950.75;;;31.18;15.00
10946;BME280;5525;42.648;23.368;2023-04-28T10:31:10;94947.66;;;28.59;16.39
10946;BME280;5525;42.648;23.368;2023-04-28T10:33:38;94940.00;;;29.88;16.00
10946;BME280;5525;42.648;23.368;2023-04-28T10:36:06;94939.63;;;29.73;16.37
10946;BME280;5525;42.648;23.368;2023-04-28T10:38:33;94951.25;;;28.91;15.88
10946;BME280;5525;42.648;23.368;2023-04-28T10:41:02;94929.72;;;29.85;15.93
10946;BME280;5525;42.648;23.368;2023-04-28T10:43:36;94938.91;;;31.27;14.45
10946;BME280;5525;42.648;23.368;2023-04-28T10:46:07;94936.06;;;29.12;16.15
10946;BME280;5525;42.648;23.368;2023-04-28T10:48:54;94923.88;;;29.67;16.25
10946;BME280;5525;42.648;23.368;2023-04-28T10:51:28;94916.41;;;27.99;17.01
10946;BME280;5525;42.648;23.368;2023-04-28T10:54:21;94923.41;;;27.26;17.56
10946;BME280;5525;42.648;23.368;2023-04-28T10:57:20;94918.22;;;26.28;18.08
10946;BME280;5525;42.648;23.368;2023-04-28T10:59:48;94912.78;;;26.98;17.20
10946;BME280;5525;42.648;23.368;2023-04-28T11:02:37;94909.81;;;28.29;17.15
10946;BME280;5525;42.648;23.368;2023-04-28T11:05:26;94915.72;;;29.59;15.30
10946;BME280;5525;42.648;23.368;2023-04-28T11:11:15;94898.72;;;28.45;15.93
10946;BME280;5525;42.648;23.368;2023-04-28T11:13:43;94901.66;;;28.38;16.41
10946;BME280;5525;42.648;23.368;2023-04-28T11:16:14;94907.59;;;28.05;16.32
10946;BME280;5525;42.648;23.368;2023-04-28T11:18:58;94884.50;;;27.29;16.81
10946;BME280;5525;42.648;23.368;2023-04-28T11:21:29;94903.44;;;28.13;16.34
10946;BME280;5525;42.648;23.368;2023-04-28T11:23:57;94901.72;;;28.70;15.85
10946;BME280;5525;42.648;23.368;2023-04-28T11:26:24;94877.56;;;25.62;17.65
10946;BME280;5525;42.648;23.368;2023-04-28T11:28:54;94890.28;;;26.19;18.27
10946;BME280;5525;42.648;23.368;2023-04-28T11:31:22;94892.31;;;26.92;17.18
10946;BME280;5525;42.648;23.368;2023-04-28T11:33:57;94892.59;;;25.91;18.40
10946;BME280;5525;42.648;23.368;2023-04-28T11:36:27;94882.47;;;24.73;18.81
10946;BME280;5525;42.648;23.368;2023-04-28T11:38:55;94877.19;;;24.41;19.33
10946;BME280;5525;42.648;23.368;2023-04-28T11:41:22;94868.75;;;25.74;18.15
10946;BME280;5525;42.648;23.368;2023-04-28T11:43:50;94869.22;;;25.35;17.43
10946;BME280;5525;42.648;23.368;2023-04-28T11:46:19;94871.56;;;24.01;18.51
10946;BME280;5525;42.648;23.368;2023-04-28T11:48:47;94869.59;;;24.05;18.52
10946;BME280;5525;42.648;23.368;2023-04-28T11:51:32;94863.91;;;24.29;18.78
10946;BME280;5525;42.648;23.368;2023-04-28T11:53:59;94864.56;;;23.79;19.50
10946;BME280;5525;42.648;23.368;2023-04-28T11:56:27;94868.41;;;23.99;18.74
10946;BME280;5525;42.648;23.368;2023-04-28T11:59:01;94862.75;;;23.51;18.83
10946;BME280;5525;42.648;23.368;2023-04-28T12:01:30;94862.84;;;23.19;18.94
10946;BME280;5525;42.648;23.368;2023-04-28T12:03:57;94860.09;;;21.51;20.28
10946;BME280;5525;42.648;23.368;2023-04-28T12:06:24;94861.50;;;20.05;21.36
10946;BME280;5525;42.648;23.368;2023-04-28T12:08:52;94845.88;;;20.60;20.63
10946;BME280;5525;42.648;23.368;2023-04-28T12:11:19;94848.06;;;20.33;21.39
10946;BME280;5525;42.648;23.368;2023-04-28T12:14:07;94843.41;;;19.93;22.88
10946;BME280;5525;42.648;23.368;2023-04-28T12:16:40;94847.34;;;19.23;23.03
10946;BME280;5525;42.648;23.368;2023-04-28T12:19:10;94832.84;;;19.22;23.05
10946;BME280;5525;42.648;23.368;2023-04-28T12:21:38;94831.59;;;18.54;24.80
10946;BME280;5525;42.648;23.368;2023-04-28T12:24:18;94829.72;;;18.09;24.98
10946;BME280;5525;42.648;23.368;2023-04-28T12:26:46;94834.53;;;17.93;25.18
10946;BME280;5525;42.648;23.368;2023-04-28T12:29:35;94830.63;;;18.16;25.82
10946;BME280;5525;42.648;23.368;2023-04-28T12:32:05;94832.75;;;18.04;25.67
10946;BME280;5525;42.648;23.368;2023-04-28T12:34:32;94811.94;;;17.96;24.84
10946;BME280;5525;42.648;23.368;2023-04-28T12:37:00;94825.69;;;17.77;25.08
10946;BME280;5525;42.648;23.368;2023-04-28T12:39:30;94817.19;;;17.59;24.93
10946;BME280;5525;42.648;23.368;2023-04-28T12:41:57;94824.03;;;17.50;26.11
10946;BME280;5525;42.648;23.368;2023-04-28T12:44:24;94812.44;;;17.56;27.02
10946;BME280;5525;42.648;23.368;2023-04-28T12:46:52;94808.97;;;17.59;27.27
10946;BME280;5525;42.648;23.368;2023-04-28T12:49:21;94803.00;;;17.31;28.27
10946;BME280;5525;42.648;23.368;2023-04-28T12:51:48;94809.19;;;17.28;28.11
10946;BME280;5525;42.648;23.368;2023-04-28T12:54:15;94807.78;;;17.38;27.99
10946;BME280;5525;42.648;23.368;2023-04-28T12:56:42;94798.22;;;17.25;28.26
10946;BME280;5525;42.648;23.368;2023-04-28T12:59:09;94796.50;;;17.58;27.54
10946;BME280;5525;42.648;23.368;2023-04-28T13:01:35;94793.38;;;17.37;28.13
10946;BME280;5525;42.648;23.368;2023-04-28T13:04:02;94785.03;;;17.49;28.28
10946;BME280;5525;42.648;23.368;2023-04-28T13:06:30;94788.97;;;17.52;27.51
10946;BME280;5525;42.648;23.368;2023-04-28T13:08:57;94777.59;;;17.50;28.01
10946;BME280;5525;42.648;23.368;2023-04-28T13:11:24;94785.94;;;17.38;27.94